createdAt,value
2022-09-17T00:00:39.746Z,12.57
2022-09-17T00:03:07.174Z,12.57
2022-09-17T00:05:34.248Z,12.59
2022-09-17T00:08:01.086Z,12.59
2022-09-17T00:10:27.876Z,12.61
2022-09-17T00:12:55.185Z,12.61
2022-09-17T00:15:21.846Z,12.64
2022-09-17T00:17:53.417Z,12.62
2022-09-17T00:20:20.214Z,12.65
2022-09-17T00:22:46.851Z,12.68
2022-09-17T00:25:13.510Z,12.71
2022-09-17T00:27:40.235Z,12.73
2022-09-17T00:30:07.533Z,12.75
2022-09-17T00:32:34.201Z,12.78
2022-09-17T00:35:00.812Z,12.83
2022-09-17T00:37:27.524Z,12.82
2022-09-17T00:39:54.190Z,12.86
2022-09-17T00:42:22.520Z,12.85
2022-09-17T00:44:55.325Z,12.84
2022-09-17T00:47:29.488Z,12.84
2022-09-17T00:50:07.990Z,12.85
2022-09-17T00:52:41.546Z,12.88
2022-09-17T00:55:17.888Z,12.92
2022-09-17T00:57:45.960Z,12.94
2022-09-17T01:00:16.609Z,12.95
2022-09-17T01:02:46.121Z,12.96
2022-09-17T01:05:13.642Z,12.95
2022-09-17T01:08:25.785Z,12.96
2022-09-17T01:11:04.836Z,12.94
2022-09-17T01:13:50.147Z,12.89
2022-09-17T01:16:32.925Z,12.88
2022-09-17T01:19:22.195Z,12.83
2022-09-17T01:21:51.813Z,12.83
2022-09-17T01:24:48.586Z,12.81
2022-09-17T01:27:46.319Z,12.80
2022-09-17T01:30:32.446Z,12.81
2022-09-17T01:33:06.471Z,12.83
2022-09-17T01:35:45.162Z,12.86
2022-09-17T01:38:24.246Z,12.84
2022-09-17T01:41:12.500Z,12.83
2022-09-17T01:43:50.875Z,12.84
2022-09-17T01:46:24.824Z,12.80
2022-09-17T01:48:58.824Z,12.74
2022-09-17T01:51:29.855Z,12.65
2022-09-17T01:54:02.509Z,12.55
2022-09-17T01:56:46.096Z,12.47
2022-09-17T01:59:22.669Z,12.47
2022-09-17T02:01:55.141Z,12.39
2022-09-17T02:04:30.367Z,12.38
2022-09-17T02:07:05.748Z,12.36
2022-09-17T02:09:38.670Z,12.32
2022-09-17T02:12:10.662Z,12.33
2022-09-17T02:14:43.736Z,12.31
2022-09-17T02:17:16.745Z,12.32
2022-09-17T02:19:43.966Z,12.29
2022-09-17T02:22:26.051Z,12.25
2022-09-17T02:24:55.515Z,12.25
2022-09-17T02:27:28.296Z,12.28
2022-09-17T02:29:55.190Z,12.26
2022-09-17T02:32:21.954Z,12.23
2022-09-17T02:34:48.691Z,12.20
2022-09-17T02:37:15.523Z,12.15
2022-09-17T02:39:42.589Z,12.07
2022-09-17T02:42:36.731Z,11.99
2022-09-17T02:45:24.019Z,11.91
2022-09-17T02:48:15.492Z,11.86
2022-09-17T02:50:45.028Z,11.76
2022-09-17T02:53:42.242Z,11.72
2022-09-17T02:56:27.270Z,11.62
2022-09-17T02:59:21.892Z,11.58
2022-09-17T03:02:00.546Z,11.53
2022-09-17T03:04:29.608Z,11.50
2022-09-17T03:06:56.804Z,11.44
2022-09-17T03:09:23.453Z,11.41
2022-09-17T03:11:50.122Z,11.38
2022-09-17T03:14:16.826Z,11.37
2022-09-17T03:16:43.448Z,11.38
2022-09-17T03:19:10.180Z,11.41
2022-09-17T03:21:36.917Z,11.41
2022-09-17T03:24:03.668Z,11.43
2022-09-17T03:26:30.497Z,11.46
2022-09-17T03:28:57.366Z,11.44
2022-09-17T03:31:24.072Z,11.43
2022-09-17T03:33:50.736Z,11.43
2022-09-17T03:36:17.467Z,11.35
2022-09-17T03:38:44.063Z,11.33
2022-09-17T03:41:11.398Z,11.29
2022-09-17T03:43:39.819Z,11.24
2022-09-17T03:46:06.758Z,11.20
2022-09-17T03:48:37.002Z,11.19
2022-09-17T03:51:04.148Z,11.12
2022-09-17T03:53:31.784Z,11.11
2022-09-17T03:56:03.322Z,11.04
2022-09-17T03:58:31.196Z,10.95
2022-09-17T04:00:58.042Z,10.95
2022-09-17T04:03:25.908Z,10.88
2022-09-17T04:05:52.589Z,10.82
2022-09-17T04:08:19.535Z,10.79
2022-09-17T04:10:46.905Z,10.80
2022-09-17T04:13:14.941Z,10.77
2022-09-17T04:15:42.242Z,10.75
2022-09-17T04:18:09.152Z,10.76
2022-09-17T04:20:35.836Z,10.78
2022-09-17T04:23:02.579Z,10.74
2022-09-17T04:25:29.325Z,10.74
2022-09-17T04:27:55.881Z,10.75
2022-09-17T04:30:23.127Z,10.73
2022-09-17T04:32:49.829Z,10.68
2022-09-17T04:35:16.833Z,10.68
2022-09-17T04:37:43.473Z,10.67
2022-09-17T04:40:10.725Z,10.65
2022-09-17T04:42:37.350Z,10.64
2022-09-17T04:45:04.419Z,10.66
2022-09-17T04:47:31.111Z,10.64
2022-09-17T04:49:57.742Z,10.58
2022-09-17T04:52:27.687Z,10.59
2022-09-17T04:54:57.043Z,10.59
2022-09-17T04:57:25.519Z,10.56
2022-09-17T04:59:52.319Z,10.55
2022-09-17T05:02:19.004Z,10.57
2022-09-17T05:04:45.682Z,10.53
2022-09-17T05:07:13.991Z,10.50
2022-09-17T05:09:40.765Z,10.54
2022-09-17T05:12:07.633Z,10.56
2022-09-17T05:14:34.325Z,10.54
2022-09-17T05:17:02.051Z,10.49
2022-09-17T05:19:28.720Z,10.50
2022-09-17T05:21:55.348Z,10.52
2022-09-17T05:24:21.968Z,10.52
2022-09-17T05:26:48.688Z,10.49
2022-09-17T05:29:15.315Z,10.47
2022-09-17T05:31:42.089Z,10.51
2022-09-17T05:34:09.142Z,10.56
2022-09-17T05:36:35.796Z,10.55
2022-09-17T05:39:02.619Z,10.54
2022-09-17T05:41:29.238Z,10.57
2022-09-17T05:43:55.928Z,10.61
2022-09-17T05:46:22.652Z,10.67
2022-09-17T05:48:49.356Z,10.70
2022-09-17T05:51:15.982Z,10.69
2022-09-17T05:53:42.633Z,10.72
2022-09-17T05:56:09.290Z,10.75
2022-09-17T05:58:36.084Z,10.77
2022-09-17T06:01:02.865Z,10.73
2022-09-17T06:03:29.700Z,10.72
2022-09-17T06:06:00.482Z,10.76
2022-09-17T06:08:28.721Z,10.82
2022-09-17T06:10:58.964Z,11.01
2022-09-17T06:13:28.322Z,11.69
2022-09-17T06:15:55.083Z,12.21
2022-09-17T06:18:21.874Z,12.61
2022-09-17T06:20:56.750Z,12.83
2022-09-17T06:23:24.291Z,12.79
2022-09-17T06:25:57.132Z,13.18
2022-09-17T06:28:25.139Z,13.26
2022-09-17T06:30:56.098Z,13.17
2022-09-17T06:33:23.537Z,13.26
2022-09-17T06:36:00.747Z,13.32
2022-09-17T06:38:28.107Z,13.09
2022-09-17T06:40:54.792Z,13.11
2022-09-17T06:43:21.846Z,12.98
2022-09-17T06:45:56.165Z,12.93
2022-09-17T06:48:24.110Z,12.87
2022-09-17T06:50:51.792Z,12.93
2022-09-17T06:53:20.008Z,12.95
2022-09-17T06:55:46.814Z,12.91
2022-09-17T06:58:13.537Z,12.89
2022-09-17T07:00:40.484Z,12.98
2022-09-17T07:03:07.137Z,13.16
2022-09-17T07:05:33.998Z,13.28
2022-09-17T07:08:04.108Z,13.33
2022-09-17T07:10:32.027Z,13.38
2022-09-17T07:12:59.421Z,13.62
2022-09-17T07:15:26.149Z,13.37
2022-09-17T07:17:53.465Z,13.34
2022-09-17T07:20:20.143Z,13.55
2022-09-17T07:22:55.614Z,13.78
2022-09-17T07:25:22.249Z,13.78
2022-09-17T07:27:48.884Z,13.54
2022-09-17T07:30:15.934Z,13.58
2022-09-17T07:32:42.812Z,13.77
2022-09-17T07:35:09.505Z,13.86
2022-09-17T07:37:36.407Z,14.05
2022-09-17T07:40:06.385Z,14.18
2022-09-17T07:42:33.364Z,14.33
2022-09-17T07:45:02.189Z,14.33
2022-09-17T07:47:29.284Z,14.47
2022-09-17T07:49:55.931Z,14.69
2022-09-17T07:52:22.654Z,14.68
2022-09-17T07:54:49.242Z,14.58
2022-09-17T07:57:16.019Z,14.28
2022-09-17T07:59:42.793Z,14.07
2022-09-17T08:02:13.305Z,13.81
2022-09-17T08:04:43.679Z,14.05
2022-09-17T08:07:13.813Z,14.68
2022-09-17T08:09:40.436Z,14.82
2022-09-17T08:12:07.505Z,14.99
2022-09-17T08:14:34.138Z,15.21
2022-09-17T08:17:00.860Z,15.04
2022-09-17T08:19:29.769Z,15.40
2022-09-17T08:21:56.795Z,15.57
2022-09-17T08:24:24.720Z,15.60
2022-09-17T08:26:51.873Z,15.72
2022-09-17T08:29:18.972Z,15.21
2022-09-17T08:31:45.659Z,15.19
2022-09-17T08:34:13.420Z,15.08
2022-09-17T08:36:40.203Z,15.38
2022-09-17T08:39:07.028Z,15.77
2022-09-17T08:41:39.975Z,15.88
2022-09-17T08:44:32.553Z,15.92
2022-09-17T08:47:06.181Z,15.63
2022-09-17T08:49:51.763Z,15.70
2022-09-17T08:52:39.649Z,15.70
2022-09-17T08:55:10.743Z,15.77
2022-09-17T08:57:54.842Z,15.31
2022-09-17T09:00:23.984Z,15.45
2022-09-17T09:03:42.665Z,15.77
2022-09-17T09:06:11.122Z,16.00
2022-09-17T09:08:56.268Z,16.02
2022-09-17T09:11:27.409Z,16.01
2022-09-17T09:14:04.053Z,16.37
2022-09-17T09:16:33.118Z,17.05
2022-09-17T09:19:13.431Z,16.45
2022-09-17T09:22:03.746Z,16.26
2022-09-17T09:24:39.558Z,15.85
2022-09-17T09:27:18.329Z,15.62
2022-09-17T09:30:04.477Z,15.48
2022-09-17T09:33:06.738Z,15.45
2022-09-17T09:35:36.391Z,15.34
2022-09-17T09:38:17.574Z,15.48
2022-09-17T09:40:46.994Z,15.32
2022-09-17T09:43:22.846Z,15.29
2022-09-17T09:45:56.842Z,15.29
2022-09-17T09:48:45.350Z,15.34
2022-09-17T09:51:20.388Z,15.35
2022-09-17T09:54:30.382Z,15.40
2022-09-17T09:57:07.352Z,15.36
2022-09-17T09:59:36.214Z,15.57
2022-09-17T10:02:03.660Z,15.46
2022-09-17T10:04:32.247Z,15.46
2022-09-17T10:07:08.334Z,15.44
2022-09-17T10:09:37.245Z,15.19
2022-09-17T10:12:10.866Z,15.19
2022-09-17T10:14:45.861Z,15.17
2022-09-17T10:17:21.612Z,15.45
2022-09-17T10:20:12.673Z,15.59
2022-09-17T10:22:46.985Z,15.75
2022-09-17T10:25:34.809Z,15.86
2022-09-17T10:28:21.634Z,15.50
2022-09-17T10:31:08.715Z,15.62
2022-09-17T10:33:39.318Z,16.45
2022-09-17T10:36:13.596Z,17.26
2022-09-17T10:38:46.689Z,17.27
2022-09-17T10:41:24.831Z,16.53
2022-09-17T10:43:52.093Z,16.23
2022-09-17T10:46:31.626Z,15.90
2022-09-17T10:49:46.618Z,15.54
2022-09-17T10:52:26.200Z,15.89
2022-09-17T10:55:33.008Z,15.85
2022-09-17T10:58:05.917Z,15.68
2022-09-17T11:00:57.451Z,15.45
2022-09-17T11:03:46.602Z,15.17
2022-09-17T11:06:50.889Z,15.23
2022-09-17T11:09:33.462Z,15.01
2022-09-17T11:12:18.921Z,14.97
2022-09-17T11:15:36.219Z,14.90
2022-09-17T11:18:23.662Z,14.83
2022-09-17T11:21:23.245Z,14.80
2022-09-17T11:24:30.241Z,14.74
2022-09-17T11:27:29.247Z,14.44
2022-09-17T11:30:15.568Z,14.44
2022-09-17T11:33:06.904Z,14.33
2022-09-17T11:35:39.889Z,14.36
2022-09-17T11:38:19.712Z,14.25
2022-09-17T11:41:09.455Z,14.31
2022-09-17T11:43:40.565Z,14.37
2022-09-17T11:46:30.878Z,14.33
2022-09-17T11:49:25.070Z,14.54
2022-09-17T11:52:14.915Z,14.56
2022-09-17T11:54:54.328Z,14.48
2022-09-17T11:57:41.698Z,14.85
2022-09-17T12:00:20.484Z,15.48
2022-09-17T12:03:01.761Z,15.77
2022-09-17T12:05:37.938Z,15.69
2022-09-17T12:08:22.526Z,15.41
2022-09-17T12:10:55.990Z,15.13
2022-09-17T12:13:22.703Z,14.75
2022-09-17T12:15:53.650Z,14.68
2022-09-17T12:18:32.158Z,14.41
2022-09-17T12:21:02.644Z,14.42
2022-09-17T12:23:43.264Z,14.45
2022-09-17T12:26:51.506Z,14.31
2022-09-17T12:29:33.489Z,14.18
2022-09-17T12:32:21.709Z,14.07
2022-09-17T12:35:02.908Z,13.91
2022-09-17T12:37:47.983Z,13.89
2022-09-17T12:40:26.873Z,13.56
2022-09-17T12:43:15.887Z,13.70
2022-09-17T12:45:51.640Z,13.37
2022-09-17T12:48:36.968Z,13.26
2022-09-17T12:51:23.350Z,13.13
2022-09-17T12:54:19.601Z,13.15
2022-09-17T12:57:13.219Z,13.06
2022-09-17T12:59:50.829Z,13.34
2022-09-17T13:02:36.987Z,13.18
2022-09-17T13:05:25.492Z,13.43
2022-09-17T13:08:12.404Z,13.77
2022-09-17T13:11:03.940Z,13.84
2022-09-17T13:13:53.051Z,13.88
2022-09-17T13:16:41.103Z,14.06
2022-09-17T13:19:17.438Z,14.10
2022-09-17T13:22:00.452Z,14.17
2022-09-17T13:24:31.214Z,14.21
2022-09-17T13:27:01.297Z,14.09
2022-09-17T13:29:46.467Z,13.92
2022-09-17T13:32:35.013Z,13.68
2022-09-17T13:35:14.611Z,13.49
2022-09-17T13:37:53.829Z,13.50
2022-09-17T13:40:26.728Z,13.47
2022-09-17T13:42:56.072Z,13.66
2022-09-17T13:45:24.606Z,13.73
2022-09-17T13:47:58.638Z,13.78
2022-09-17T13:50:41.770Z,13.92
2022-09-17T13:53:14.451Z,13.96
2022-09-17T13:55:49.182Z,14.27
2022-09-17T13:58:18.890Z,14.29
2022-09-17T14:01:02.772Z,14.55
2022-09-17T14:03:37.672Z,14.34
2022-09-17T14:06:18.781Z,14.34
2022-09-17T14:08:45.546Z,14.26
2022-09-17T14:11:21.477Z,14.16
2022-09-17T14:13:50.538Z,14.08
2022-09-17T14:16:33.764Z,14.11
2022-09-17T14:19:23.801Z,14.23
2022-09-17T14:22:14.398Z,14.11
2022-09-17T14:24:46.925Z,14.16
2022-09-17T14:27:44.584Z,14.17
2022-09-17T14:30:31.255Z,14.18
2022-09-17T14:33:00.893Z,14.13
2022-09-17T14:35:38.494Z,14.18
2022-09-17T14:38:45.852Z,14.21
2022-09-17T14:41:12.435Z,14.24
2022-09-17T14:43:53.573Z,13.90
2022-09-17T14:46:24.927Z,13.80
2022-09-17T14:48:52.050Z,13.75
2022-09-17T14:51:18.864Z,13.62
2022-09-17T14:53:47.155Z,13.59
2022-09-17T14:56:24.501Z,13.44
2022-09-17T14:58:56.646Z,13.40
2022-09-17T15:01:24.799Z,13.40
2022-09-17T15:04:13.273Z,13.50
2022-09-17T15:06:44.372Z,13.44
2022-09-17T15:09:16.908Z,13.45
2022-09-17T15:11:45.801Z,13.43
2022-09-17T15:14:22.169Z,13.24
2022-09-17T15:16:52.731Z,13.21
2022-09-17T15:19:33.478Z,13.33
2022-09-17T15:22:07.320Z,13.31
2022-09-17T15:24:50.257Z,13.34
2022-09-17T15:27:39.200Z,13.37
2022-09-17T15:30:10.103Z,13.32
2022-09-17T15:32:38.769Z,13.21
2022-09-17T15:35:12.026Z,13.28
2022-09-17T15:38:21.115Z,13.32
2022-09-17T15:40:42.569Z,13.35
2022-09-17T15:43:26.218Z,13.49
2022-09-17T15:45:53.525Z,13.42
2022-09-17T15:48:40.180Z,13.26
2022-09-17T15:51:22.545Z,12.64
2022-09-17T15:53:55.380Z,12.48
2022-09-17T15:56:31.221Z,12.24
2022-09-17T15:59:02.533Z,11.96
2022-09-17T16:01:29.685Z,12.13
2022-09-17T16:04:16.502Z,11.93
2022-09-17T16:06:55.652Z,12.12
2022-09-17T16:09:44.187Z,11.96
2022-09-17T16:12:14.155Z,11.82
2022-09-17T16:14:49.639Z,11.75
2022-09-17T16:17:22.648Z,11.74
2022-09-17T16:19:49.470Z,11.69
2022-09-17T16:22:16.202Z,11.62
2022-09-17T16:24:43.320Z,11.55
2022-09-17T16:27:18.472Z,11.62
2022-09-17T16:29:45.547Z,11.50
2022-09-17T16:32:12.498Z,11.56
2022-09-17T16:34:39.621Z,11.50
2022-09-17T16:37:06.312Z,11.64
2022-09-17T16:39:32.979Z,11.70
2022-09-17T16:41:59.752Z,11.74
2022-09-17T16:44:26.556Z,11.89
2022-09-17T16:46:53.346Z,11.84
2022-09-17T16:49:20.131Z,11.83
2022-09-17T16:51:47.116Z,11.77
2022-09-17T16:54:14.026Z,11.71
2022-09-17T16:56:40.697Z,11.75
2022-09-17T16:59:07.620Z,11.86
2022-09-17T17:01:34.739Z,11.75
2022-09-17T17:04:01.964Z,11.65
2022-09-17T17:06:28.680Z,11.57
2022-09-17T17:08:55.275Z,11.63
2022-09-17T17:11:22.133Z,11.61
2022-09-17T17:13:49.885Z,11.69
2022-09-17T17:16:16.771Z,11.59
2022-09-17T17:18:44.583Z,11.54
2022-09-17T17:21:13.495Z,11.61
2022-09-17T17:23:47.904Z,11.88
2022-09-17T17:26:17.847Z,11.70
2022-09-17T17:28:44.730Z,11.72
2022-09-17T17:31:11.891Z,11.84
2022-09-17T17:33:38.935Z,11.88
2022-09-17T17:36:08.322Z,11.80
2022-09-17T17:38:36.264Z,11.80
2022-09-17T17:41:08.137Z,11.66
2022-09-17T17:43:35.226Z,11.62
2022-09-17T17:46:02.478Z,11.60
2022-09-17T17:48:30.005Z,11.52
2022-09-17T17:51:05.016Z,11.60
2022-09-17T17:53:32.210Z,11.65
2022-09-17T17:56:02.451Z,11.69
2022-09-17T17:58:29.925Z,11.74
2022-09-17T18:00:56.616Z,11.72
2022-09-17T18:03:27.020Z,11.74
2022-09-17T18:05:56.453Z,11.69
2022-09-17T18:08:24.265Z,11.58
2022-09-17T18:10:55.468Z,11.53
2022-09-17T18:13:23.214Z,11.41
2022-09-17T18:15:54.692Z,11.30
2022-09-17T18:18:23.138Z,11.29
2022-09-17T18:20:51.774Z,11.32
2022-09-17T18:23:19.279Z,11.41
2022-09-17T18:25:54.429Z,11.51
2022-09-17T18:28:22.116Z,11.57
2022-09-17T18:30:49.452Z,11.59
2022-09-17T18:33:27.616Z,11.66
2022-09-17T18:35:57.658Z,11.66
2022-09-17T18:38:24.567Z,11.65
2022-09-17T18:40:51.857Z,11.66
2022-09-17T18:43:18.665Z,11.65
2022-09-17T18:45:58.486Z,11.65
2022-09-17T18:48:25.143Z,11.58
2022-09-17T18:51:12.803Z,11.58
2022-09-17T18:53:39.475Z,11.65
2022-09-17T18:56:10.715Z,11.62
2022-09-17T18:58:37.439Z,11.69
2022-09-17T19:01:08.122Z,11.76
2022-09-17T19:03:35.177Z,11.80
2022-09-17T19:06:07.414Z,11.82
2022-09-17T19:08:34.416Z,11.85
2022-09-17T19:11:01.097Z,11.92
2022-09-17T19:13:34.009Z,11.88
2022-09-17T19:16:01.563Z,11.88
2022-09-17T19:18:28.999Z,11.88
2022-09-17T19:21:00.671Z,11.87
2022-09-17T19:23:28.242Z,11.89
2022-09-17T19:25:55.287Z,11.92
2022-09-17T19:28:23.082Z,11.92
2022-09-17T19:30:50.380Z,11.91
2022-09-17T19:33:17.092Z,11.94
2022-09-17T19:35:43.761Z,11.89
2022-09-17T19:38:13.423Z,11.88
2022-09-17T19:40:40.965Z,11.87
2022-09-17T19:43:07.795Z,11.86
2022-09-17T19:45:34.540Z,11.83
2022-09-17T19:48:01.662Z,11.81
2022-09-17T19:50:29.689Z,11.79
2022-09-17T19:52:56.483Z,11.80
2022-09-17T19:55:24.579Z,11.81
2022-09-17T19:57:51.371Z,11.84
2022-09-17T20:00:18.593Z,11.83
2022-09-17T20:02:45.330Z,11.83
2022-09-17T20:05:13.509Z,11.81
2022-09-17T20:07:40.268Z,11.81
2022-09-17T20:10:07.778Z,11.77
2022-09-17T20:12:34.380Z,11.75
2022-09-17T20:15:00.995Z,11.72
2022-09-17T20:17:29.823Z,11.71
2022-09-17T20:19:56.431Z,11.64
2022-09-17T20:22:23.136Z,11.66
2022-09-17T20:24:51.208Z,11.62
2022-09-17T20:27:18.113Z,11.57
2022-09-17T20:29:44.774Z,11.56
2022-09-17T20:32:11.535Z,11.50
2022-09-17T20:34:38.318Z,11.50
2022-09-17T20:37:12.974Z,11.45
2022-09-17T20:39:40.424Z,11.41
2022-09-17T20:42:07.296Z,11.42
2022-09-17T20:44:34.129Z,11.35
2022-09-17T20:47:01.870Z,11.29
2022-09-17T20:49:28.654Z,11.19
2022-09-17T20:51:55.267Z,11.19
2022-09-17T20:54:21.926Z,11.17
2022-09-17T20:56:48.578Z,11.13
2022-09-17T20:59:18.513Z,11.07
2022-09-17T21:01:47.450Z,11.02
2022-09-17T21:04:17.150Z,11.00
2022-09-17T21:06:44.876Z,10.95
2022-09-17T21:09:15.931Z,10.97
2022-09-17T21:11:47.469Z,10.94
2022-09-17T21:14:18.566Z,10.94
2022-09-17T21:16:46.006Z,10.97
2022-09-17T21:19:14.134Z,10.91
2022-09-17T21:21:40.845Z,10.92
2022-09-17T21:24:10.145Z,10.95
2022-09-17T21:26:37.334Z,10.96
2022-09-17T21:29:04.176Z,10.86
2022-09-17T21:31:33.580Z,10.86
2022-09-17T21:34:03.605Z,10.86
2022-09-17T21:36:33.473Z,10.96
2022-09-17T21:39:09.584Z,10.97
2022-09-17T21:41:41.432Z,11.01
2022-09-17T21:44:09.452Z,11.05
2022-09-17T21:46:36.984Z,11.10
2022-09-17T21:49:04.756Z,11.09
2022-09-17T21:51:38.577Z,11.07
2022-09-17T21:54:07.707Z,11.02
2022-09-17T21:56:35.410Z,11.00
2022-09-17T21:59:05.349Z,10.99
2022-09-17T22:01:40.035Z,10.93
2022-09-17T22:04:13.342Z,10.90
2022-09-17T22:06:41.175Z,10.93
2022-09-17T22:09:12.939Z,10.93
2022-09-17T22:11:39.644Z,10.95
2022-09-17T22:14:11.031Z,10.96
2022-09-17T22:16:46.982Z,10.94
2022-09-17T22:19:16.040Z,11.00
2022-09-17T22:21:46.594Z,10.99
2022-09-17T22:24:14.846Z,10.99
2022-09-17T22:26:43.880Z,10.96
2022-09-17T22:29:13.853Z,10.94
2022-09-17T22:31:40.980Z,10.94
2022-09-17T22:34:09.739Z,10.91
2022-09-17T22:36:37.323Z,10.92
2022-09-17T22:39:05.394Z,10.89
2022-09-17T22:41:34.567Z,10.93
2022-09-17T22:44:04.255Z,10.85
2022-09-17T22:46:36.474Z,10.89
2022-09-17T22:49:03.156Z,10.91
2022-09-17T22:51:30.599Z,10.89
2022-09-17T22:53:58.659Z,10.91
2022-09-17T22:56:28.457Z,10.91
2022-09-17T22:58:59.294Z,10.91
2022-09-17T23:01:31.582Z,10.92
2022-09-17T23:03:59.657Z,10.85
2022-09-17T23:06:32.149Z,10.81
2022-09-17T23:08:59.361Z,10.76
2022-09-17T23:11:28.943Z,10.69
2022-09-17T23:13:57.810Z,10.65
2022-09-17T23:16:25.491Z,10.57
2022-09-17T23:18:52.254Z,10.57
2022-09-17T23:21:19.940Z,10.55
2022-09-17T23:23:49.871Z,10.56
2022-09-17T23:26:19.803Z,10.61
2022-09-17T23:28:47.723Z,10.65
2022-09-17T23:31:23.562Z,10.74
2022-09-17T23:33:51.185Z,10.73
2022-09-17T23:36:23.623Z,10.71
2022-09-17T23:38:54.210Z,10.68
2022-09-17T23:41:24.534Z,10.61
2022-09-17T23:43:55.079Z,10.63
2022-09-17T23:46:23.942Z,10.59
2022-09-17T23:48:52.020Z,10.63
2022-09-17T23:51:20.334Z,10.61
2022-09-17T23:53:48.195Z,10.58
2022-09-17T23:56:19.057Z,10.53
2022-09-17T23:58:45.801Z,10.52
